createdAt,value
2018-12-19T00:02:56.453Z,66.66
2018-12-19T00:06:03.149Z,65.98
2018-12-19T00:09:08.426Z,65.64
2018-12-19T00:12:14.309Z,65.78
2018-12-19T00:15:19.038Z,66.15
2018-12-19T00:18:25.597Z,65.91
2018-12-19T00:21:30.452Z,65.81
2018-12-19T00:24:35.048Z,66.41
2018-12-19T00:27:41.936Z,65.58
2018-12-19T00:30:48.542Z,65.53
2018-12-19T00:33:55.266Z,65.05
2018-12-19T00:37:01.726Z,66.15
2018-12-19T00:40:07.657Z,64.79
2018-12-19T00:43:12.307Z,64.39
2018-12-19T00:46:17.007Z,64.86
2018-12-19T00:49:21.714Z,64.43
2018-12-19T00:52:26.304Z,63.89
2018-12-19T00:55:30.881Z,63.72
2018-12-19T00:58:35.429Z,63.97
2018-12-19T01:01:40.018Z,63.72
2018-12-19T01:04:48.055Z,64.20
2018-12-19T01:07:51.157Z,63.80
2018-12-19T01:10:55.648Z,62.32
2018-12-19T01:14:00.303Z,62.27
2018-12-19T01:17:04.934Z,62.56
2018-12-19T01:20:09.569Z,61.97
2018-12-19T01:23:14.197Z,61.35
2018-12-19T01:26:18.723Z,61.48
2018-12-19T01:29:23.152Z,61.27
2018-12-19T01:32:27.722Z,61.40
2018-12-19T01:35:32.355Z,60.71
2018-12-19T01:38:36.898Z,60.86
2018-12-19T01:41:41.588Z,60.71
2018-12-19T01:44:46.328Z,61.10
2018-12-19T01:47:51.007Z,60.20
2018-12-19T01:50:55.652Z,60.62
2018-12-19T01:54:00.240Z,59.50
2018-12-19T01:57:04.849Z,59.39
2018-12-19T02:00:09.636Z,59.24
2018-12-19T02:03:14.290Z,59.33
2018-12-19T02:06:19.040Z,59.27
2018-12-19T02:09:28.868Z,59.07
2018-12-19T02:12:30.162Z,59.18
2018-12-19T02:15:34.896Z,58.67
2018-12-19T02:18:39.730Z,58.46
2018-12-19T02:21:44.361Z,58.30
2018-12-19T02:24:48.921Z,58.87
2018-12-19T02:27:53.722Z,58.67
2018-12-19T02:30:58.318Z,58.02
2018-12-19T02:34:03.079Z,57.86
2018-12-19T02:37:07.813Z,57.84
2018-12-19T02:40:12.511Z,58.15
2018-12-19T02:43:17.266Z,58.22
2018-12-19T02:46:21.902Z,57.99
2018-12-19T02:49:26.567Z,57.77
2018-12-19T02:52:31.287Z,58.28
2018-12-19T02:55:35.904Z,57.66
2018-12-19T02:58:40.496Z,57.98
2018-12-19T03:01:45.142Z,58.24
2018-12-19T03:04:49.698Z,58.18
2018-12-19T03:07:54.541Z,58.05
2018-12-19T03:10:59.308Z,58.96
2018-12-19T03:14:04.005Z,58.36
2018-12-19T03:17:08.701Z,58.91
2018-12-19T03:20:13.272Z,58.90
2018-12-19T03:23:17.854Z,58.35
2018-12-19T03:26:22.465Z,58.09
2018-12-19T03:29:27.111Z,58.13
2018-12-19T03:32:31.684Z,58.07
2018-12-19T03:35:36.275Z,57.88
2018-12-19T03:38:40.861Z,57.95
2018-12-19T03:41:45.847Z,58.11
2018-12-19T03:44:50.468Z,57.64
2018-12-19T03:47:56.120Z,57.84
2018-12-19T03:51:00.730Z,57.44
2018-12-19T03:54:05.289Z,57.44
2018-12-19T03:57:10.321Z,57.91
2018-12-19T04:00:14.985Z,57.92
2018-12-19T04:03:19.715Z,57.74
2018-12-19T04:06:24.408Z,58.37
2018-12-19T04:09:29.034Z,58.15
2018-12-19T04:12:33.621Z,57.90
2018-12-19T04:15:38.211Z,57.64
2018-12-19T04:18:45.723Z,57.78
2018-12-19T04:21:50.275Z,57.64
2018-12-19T04:24:54.885Z,57.99
2018-12-19T04:27:59.570Z,57.59
2018-12-19T04:31:04.188Z,58.06
2018-12-19T04:34:08.799Z,57.51
2018-12-19T04:37:13.361Z,57.48
2018-12-19T04:40:17.992Z,57.09
2018-12-19T04:43:22.588Z,57.03
2018-12-19T04:46:27.181Z,57.72
2018-12-19T04:49:31.714Z,57.48
2018-12-19T04:52:36.198Z,57.29
2018-12-19T04:55:41.710Z,57.53
2018-12-19T04:58:46.231Z,57.72
2018-12-19T05:01:50.864Z,57.45
2018-12-19T05:04:55.527Z,57.43
2018-12-19T05:08:00.224Z,57.65
2018-12-19T05:11:04.966Z,57.65
2018-12-19T05:14:09.578Z,57.56
2018-12-19T05:17:14.202Z,57.93
2018-12-19T05:20:18.688Z,57.75
2018-12-19T05:23:23.369Z,58.21
2018-12-19T05:26:27.993Z,58.52
2018-12-19T05:29:32.634Z,58.11
2018-12-19T05:32:37.217Z,58.51
2018-12-19T05:35:41.814Z,57.95
2018-12-19T05:38:46.442Z,57.38
2018-12-19T05:41:51.114Z,58.24
2018-12-19T05:44:55.671Z,57.26
2018-12-19T05:48:00.202Z,56.75
2018-12-19T05:51:04.775Z,56.93
2018-12-19T05:54:09.421Z,57.21
2018-12-19T05:57:14.188Z,57.14
2018-12-19T06:00:18.730Z,56.75
2018-12-19T06:03:25.481Z,56.83
2018-12-19T06:06:30.243Z,56.54
2018-12-19T06:09:34.885Z,56.38
2018-12-19T06:12:39.516Z,56.28
2018-12-19T06:15:44.301Z,56.16
2018-12-19T06:18:48.949Z,56.56
2018-12-19T06:21:53.571Z,56.95
2018-12-19T06:24:58.214Z,56.53
2018-12-19T06:28:02.867Z,56.61
2018-12-19T06:31:07.572Z,56.34
2018-12-19T06:34:12.222Z,55.88
2018-12-19T06:37:16.746Z,55.92
2018-12-19T06:40:21.337Z,55.98
2018-12-19T06:43:25.876Z,56.12
2018-12-19T06:46:30.531Z,55.30
2018-12-19T06:49:35.169Z,55.22
2018-12-19T06:52:39.726Z,55.23
2018-12-19T06:55:44.265Z,54.88
2018-12-19T06:58:48.953Z,54.50
2018-12-19T07:01:53.593Z,54.61
2018-12-19T07:04:58.197Z,55.26
2018-12-19T07:08:02.749Z,54.65
2018-12-19T07:11:07.373Z,53.69
2018-12-19T07:14:11.926Z,53.72
2018-12-19T07:17:16.685Z,54.07
2018-12-19T07:20:21.391Z,53.51
2018-12-19T07:23:27.134Z,53.78
2018-12-19T07:26:31.852Z,53.48
2018-12-19T07:29:36.578Z,53.24
2018-12-19T07:32:41.217Z,52.91
2018-12-19T07:35:46.740Z,52.78
2018-12-19T07:38:51.343Z,52.31
2018-12-19T07:41:55.986Z,52.19
2018-12-19T07:45:00.485Z,51.60
2018-12-19T07:48:05.131Z,51.00
2018-12-19T07:51:09.813Z,50.51
2018-12-19T07:54:14.362Z,49.26
2018-12-19T07:57:18.986Z,49.24
2018-12-19T08:00:27.434Z,48.50
2018-12-19T08:03:30.497Z,47.96
2018-12-19T08:06:35.206Z,47.58
2018-12-19T08:09:39.786Z,48.25
2018-12-19T08:12:44.457Z,48.63
2018-12-19T08:15:48.966Z,48.77
2018-12-19T08:19:09.678Z,49.21
2018-12-19T08:22:19.934Z,50.20
2018-12-19T08:25:24.522Z,49.86
2018-12-19T08:28:29.148Z,50.26
2018-12-19T08:31:39.913Z,50.08
2018-12-19T08:34:44.490Z,50.29
2018-12-19T08:37:49.141Z,50.07
2018-12-19T08:40:58.781Z,51.18
2018-12-19T08:44:00.528Z,50.81
2018-12-19T08:47:05.101Z,50.25
2018-12-19T08:50:10.468Z,50.42
2018-12-19T08:53:14.974Z,51.25
2018-12-19T08:56:19.616Z,51.21
2018-12-19T08:59:24.165Z,50.81
2018-12-19T09:02:28.923Z,51.21
2018-12-19T09:05:33.487Z,50.91
2018-12-19T09:08:38.335Z,50.75
2018-12-19T09:11:42.981Z,50.79
2018-12-19T09:14:47.685Z,51.01
2018-12-19T09:17:52.277Z,51.09
2018-12-19T09:20:56.828Z,51.35
2018-12-19T09:24:01.546Z,51.13
2018-12-19T09:27:06.115Z,51.39
2018-12-19T09:30:10.649Z,51.13
2018-12-19T09:33:15.244Z,51.01
2018-12-19T09:36:19.956Z,50.93
2018-12-19T09:39:24.497Z,51.19
2018-12-19T09:42:29.094Z,51.49
2018-12-19T09:45:33.681Z,51.25
2018-12-19T09:48:38.138Z,52.35
2018-12-19T09:51:42.655Z,52.58
2018-12-19T09:54:47.257Z,52.45
2018-12-19T09:57:52.058Z,52.63
2018-12-19T10:00:57.213Z,52.19
2018-12-19T10:04:02.063Z,53.28
2018-12-19T10:07:06.696Z,52.94
2018-12-19T10:10:11.486Z,53.58
2018-12-19T10:13:16.264Z,53.02
2018-12-19T10:16:20.801Z,53.04
2018-12-19T10:19:25.386Z,52.70
2018-12-19T10:22:32.104Z,52.58
2018-12-19T10:25:36.715Z,52.51
2018-12-19T10:28:41.382Z,52.64
2018-12-19T10:31:46.107Z,52.28
2018-12-19T10:34:50.769Z,53.04
2018-12-19T10:37:55.399Z,52.50
2018-12-19T10:41:00.056Z,52.31
2018-12-19T10:44:04.920Z,51.91
2018-12-19T10:47:09.446Z,51.39
2018-12-19T10:50:14.051Z,51.38
2018-12-19T10:53:18.709Z,52.56
2018-12-19T10:56:23.234Z,52.17
2018-12-19T10:59:27.974Z,51.54
2018-12-19T11:02:32.617Z,51.27
2018-12-19T11:05:37.371Z,51.74
2018-12-19T11:08:42.966Z,51.40
2018-12-19T11:11:47.557Z,51.66
2018-12-19T11:14:52.266Z,51.60
2018-12-19T11:17:56.921Z,51.49
2018-12-19T11:21:01.769Z,51.69
2018-12-19T11:24:06.488Z,51.79
2018-12-19T11:27:17.629Z,51.67
2018-12-19T11:30:22.347Z,51.54
2018-12-19T11:33:27.026Z,51.28
2018-12-19T11:36:31.606Z,50.69
2018-12-19T11:39:37.142Z,50.42
2018-12-19T11:42:41.763Z,51.07
2018-12-19T11:45:46.406Z,50.64
2018-12-19T11:48:51.004Z,50.55
2018-12-19T11:51:55.637Z,50.75
2018-12-19T11:55:00.339Z,50.05
2018-12-19T11:58:05.082Z,50.67
2018-12-19T12:01:09.675Z,50.51
2018-12-19T12:04:14.339Z,50.34
2018-12-19T12:07:21.394Z,50.50
2018-12-19T12:10:25.951Z,50.70
2018-12-19T12:13:30.655Z,50.15
2018-12-19T12:16:35.337Z,50.58
2018-12-19T12:19:39.940Z,50.67
2018-12-19T12:22:44.685Z,50.85
2018-12-19T12:25:49.303Z,51.10
2018-12-19T12:28:53.953Z,51.28
2018-12-19T12:31:58.561Z,51.59
2018-12-19T12:35:03.371Z,50.86
2018-12-19T12:38:08.071Z,51.18
2018-12-19T12:41:12.611Z,50.86
2018-12-19T12:44:17.121Z,51.05
2018-12-19T12:47:21.947Z,51.47
2018-12-19T12:50:26.531Z,51.60
2018-12-19T12:53:31.209Z,52.10
2018-12-19T12:56:35.862Z,51.45
2018-12-19T12:59:40.542Z,51.50
2018-12-19T13:02:45.193Z,51.20
2018-12-19T13:05:49.701Z,50.73
2018-12-19T13:08:54.261Z,50.66
2018-12-19T13:11:59.060Z,50.44
2018-12-19T13:15:03.850Z,50.47
2018-12-19T13:18:08.466Z,50.26
2018-12-19T13:21:13.047Z,50.15
2018-12-19T13:24:17.918Z,50.28
2018-12-19T13:27:22.698Z,50.45
2018-12-19T13:30:27.237Z,50.10
2018-12-19T13:33:32.033Z,50.23
2018-12-19T13:36:36.834Z,50.06
2018-12-19T13:39:41.442Z,50.53
2018-12-19T13:42:45.981Z,50.54
2018-12-19T13:45:50.478Z,50.64
2018-12-19T13:48:55.086Z,50.39
2018-12-19T13:51:59.735Z,50.38
2018-12-19T13:55:04.592Z,51.28
2018-12-19T13:58:09.262Z,51.32
2018-12-19T14:01:13.938Z,51.29
2018-12-19T14:04:18.593Z,51.48
2018-12-19T14:07:23.241Z,51.52
2018-12-19T14:10:27.779Z,52.01
2018-12-19T14:13:32.458Z,52.18
2018-12-19T14:16:36.953Z,51.83
2018-12-19T14:19:41.562Z,51.29
2018-12-19T14:22:46.209Z,51.23
2018-12-19T14:25:51.189Z,51.67
2018-12-19T14:28:55.809Z,51.63
2018-12-19T14:32:00.409Z,51.87
2018-12-19T14:35:05.253Z,51.99
2018-12-19T14:38:09.853Z,52.04
2018-12-19T14:41:14.533Z,52.37
2018-12-19T14:44:19.217Z,52.11
2018-12-19T14:47:23.908Z,51.92
2018-12-19T14:50:28.502Z,52.21
2018-12-19T14:53:33.091Z,52.40
2018-12-19T14:56:37.652Z,52.14
2018-12-19T14:59:42.260Z,51.93
2018-12-19T15:02:46.989Z,52.53
2018-12-19T15:05:51.606Z,52.40
2018-12-19T15:08:56.191Z,52.45
2018-12-19T15:12:00.942Z,53.17
2018-12-19T15:15:06.890Z,53.07
2018-12-19T15:18:11.580Z,53.23
2018-12-19T15:21:16.189Z,53.27
2018-12-19T15:24:20.814Z,53.36
2018-12-19T15:27:25.364Z,53.50
2018-12-19T15:30:29.895Z,54.19
2018-12-19T15:33:34.561Z,54.51
2018-12-19T15:36:39.334Z,54.43
2018-12-19T15:39:43.963Z,54.91
2018-12-19T15:42:48.652Z,54.95
2018-12-19T15:45:53.270Z,55.28
2018-12-19T15:48:57.991Z,55.05
2018-12-19T15:52:02.647Z,55.26
2018-12-19T15:55:07.331Z,56.67
2018-12-19T15:58:12.005Z,56.16
2018-12-19T16:01:16.581Z,57.03
2018-12-19T16:04:21.131Z,56.55
2018-12-19T16:07:25.808Z,57.15
2018-12-19T16:10:30.461Z,56.45
2018-12-19T16:13:35.222Z,56.45
2018-12-19T16:16:39.884Z,56.78
2018-12-19T16:19:44.341Z,57.20
2018-12-19T16:22:48.845Z,57.35
2018-12-19T16:25:53.376Z,57.13
2018-12-19T16:28:58.017Z,56.77
2018-12-19T16:32:02.776Z,57.25
2018-12-19T16:35:07.846Z,57.24
2018-12-19T16:38:12.580Z,58.17
2018-12-19T16:41:17.253Z,57.62
2018-12-19T16:44:22.316Z,58.26
2018-12-19T16:47:26.921Z,57.12
2018-12-19T16:50:31.522Z,58.26
2018-12-19T16:53:36.257Z,58.56
2018-12-19T16:56:40.978Z,59.31
2018-12-19T16:59:45.556Z,58.08
2018-12-19T17:02:50.162Z,58.07
2018-12-19T17:05:54.823Z,58.35
2018-12-19T17:09:00.590Z,58.34
2018-12-19T17:12:07.271Z,58.28
2018-12-19T17:15:11.910Z,59.17
2018-12-19T17:18:16.504Z,59.75
2018-12-19T17:21:21.142Z,59.00
2018-12-19T17:24:30.875Z,59.11
2018-12-19T17:27:35.538Z,59.18
2018-12-19T17:30:40.130Z,59.06
2018-12-19T17:33:44.662Z,58.79
2018-12-19T17:36:49.237Z,58.73
2018-12-19T17:39:53.884Z,58.99
2018-12-19T17:42:59.533Z,59.07
2018-12-19T17:46:04.439Z,58.62
2018-12-19T17:49:09.098Z,59.19
2018-12-19T17:52:13.809Z,60.43
2018-12-19T17:55:18.393Z,60.25
2018-12-19T17:58:23.042Z,60.35
2018-12-19T18:01:27.646Z,59.62
2018-12-19T18:04:32.253Z,59.37
2018-12-19T18:07:36.860Z,59.81
2018-12-19T18:10:41.504Z,60.08
2018-12-19T18:13:46.172Z,59.73
2018-12-19T18:16:50.933Z,59.66
2018-12-19T18:19:55.584Z,59.13
2018-12-19T18:23:00.231Z,58.92
2018-12-19T18:26:04.944Z,57.79
2018-12-19T18:29:09.537Z,58.07
2018-12-19T18:32:14.311Z,57.29
2018-12-19T18:35:19.252Z,56.74
2018-12-19T18:38:23.884Z,57.09
2018-12-19T18:41:28.438Z,56.22
2018-12-19T18:44:33.306Z,57.15
2018-12-19T18:47:38.031Z,56.92
2018-12-19T18:50:42.790Z,56.88
2018-12-19T18:53:47.386Z,56.70
2018-12-19T18:56:51.973Z,57.47
2018-12-19T18:59:56.595Z,57.97
2018-12-19T19:03:01.272Z,57.55
2018-12-19T19:06:05.951Z,57.33
2018-12-19T19:09:10.554Z,57.52
2018-12-19T19:12:15.412Z,57.10
2018-12-19T19:15:20.009Z,56.88
2018-12-19T19:18:24.613Z,57.09
2018-12-19T19:21:29.312Z,57.22
2018-12-19T19:24:33.987Z,56.90
2018-12-19T19:27:38.597Z,56.85
2018-12-19T19:30:43.226Z,56.72
2018-12-19T19:33:47.803Z,56.55
2018-12-19T19:36:52.531Z,56.95
2018-12-19T19:39:57.484Z,56.57
2018-12-19T19:43:02.102Z,57.08
2018-12-19T19:46:06.676Z,57.13
2018-12-19T19:49:11.382Z,57.12
2018-12-19T19:52:15.986Z,56.86
2018-12-19T19:55:20.589Z,57.29
2018-12-19T19:58:25.384Z,57.41
2018-12-19T20:01:30.118Z,57.84
2018-12-19T20:04:34.761Z,57.20
2018-12-19T20:07:39.370Z,57.79
2018-12-19T20:10:44.066Z,57.26
2018-12-19T20:13:48.648Z,58.04
2018-12-19T20:16:58.373Z,58.50
2018-12-19T20:20:03.037Z,58.35
2018-12-19T20:23:07.594Z,58.27
2018-12-19T20:26:12.189Z,58.49
2018-12-19T20:29:16.837Z,59.01
2018-12-19T20:32:21.558Z,58.56
2018-12-19T20:35:26.133Z,58.48
2018-12-19T20:38:31.734Z,58.35
2018-12-19T20:41:36.361Z,58.61
2018-12-19T20:44:41.018Z,58.06
2018-12-19T20:47:45.726Z,58.52
2018-12-19T20:50:50.330Z,58.41
2018-12-19T20:53:56.051Z,58.48
2018-12-19T20:57:00.770Z,58.58
2018-12-19T21:00:06.790Z,60.09
2018-12-19T21:03:11.794Z,60.41
2018-12-19T21:06:16.457Z,60.20
2018-12-19T21:09:21.118Z,59.46
2018-12-19T21:12:25.722Z,59.20
2018-12-19T21:15:30.308Z,58.92
2018-12-19T21:18:40.378Z,58.96
2018-12-19T21:21:44.997Z,59.07
2018-12-19T21:24:49.545Z,59.22
2018-12-19T21:27:54.241Z,59.19
2018-12-19T21:30:58.894Z,59.25
2018-12-19T21:34:03.667Z,59.17
2018-12-19T21:37:08.257Z,59.45
2018-12-19T21:40:13.981Z,59.53
2018-12-19T21:43:18.750Z,59.35
2018-12-19T21:46:23.381Z,59.80
2018-12-19T21:49:28.124Z,60.05
2018-12-19T21:52:32.740Z,59.92
2018-12-19T21:55:37.475Z,59.89
2018-12-19T21:58:42.371Z,60.04
2018-12-19T22:01:46.994Z,59.92
2018-12-19T22:04:51.653Z,59.83
2018-12-19T22:07:56.516Z,60.00
2018-12-19T22:11:01.310Z,60.04
2018-12-19T22:14:06.245Z,60.01
2018-12-19T22:17:15.854Z,59.98
2018-12-19T22:20:20.434Z,59.96
2018-12-19T22:23:24.981Z,60.04
2018-12-19T22:26:30.970Z,61.92
2018-12-19T22:29:35.992Z,62.30
2018-12-19T22:32:40.585Z,62.02
2018-12-19T22:35:45.150Z,62.92
2018-12-19T22:38:49.776Z,62.80
2018-12-19T22:41:54.377Z,62.63
2018-12-19T22:44:58.908Z,62.81
2018-12-19T22:48:03.483Z,62.36
2018-12-19T22:51:08.185Z,62.54
2018-12-19T22:54:12.823Z,62.48
2018-12-19T22:57:17.403Z,62.99
2018-12-19T23:00:22.341Z,62.55
2018-12-19T23:03:34.173Z,63.03
2018-12-19T23:06:38.907Z,62.47
2018-12-19T23:09:43.598Z,62.75
2018-12-19T23:12:48.389Z,62.68
2018-12-19T23:15:53.063Z,62.45
2018-12-19T23:19:03.138Z,62.91
2018-12-19T23:22:13.468Z,62.91
2018-12-19T23:25:23.750Z,63.32
2018-12-19T23:28:30.439Z,63.30
2018-12-19T23:31:35.566Z,62.72
2018-12-19T23:34:40.225Z,62.74
2018-12-19T23:37:45.000Z,63.01
2018-12-19T23:40:49.660Z,62.71
2018-12-19T23:43:54.460Z,64.12
2018-12-19T23:46:59.324Z,62.63
2018-12-19T23:50:04.184Z,63.87
2018-12-19T23:53:08.754Z,63.55
2018-12-19T23:56:13.273Z,64.20
2018-12-19T23:59:17.940Z,63.77
